EHKD/DHR METAR and TAF weather

Enter ICAO airport designator
Station Type Date Time Source
EHKD METAR 2022/05/23 14:25 UTC NOAA

EHKD 231425Z AUTO 31008KT 280V350 9999 -DZ BKN085 OVC091 15/13 Q0999 BLU TEMPO SCT080CB BKN090


Station Type Date Time Source
EHKD Decoded METAR 2022/05/23 14:25 UTC NOAA

De Kooy, Netherlands (EHKD) 52-55N 004-47E 14M
May 23, 2022 - 10:25 AM EDT / 2022.05.23 1425 UTC
Wind: from the NW (310 degrees) at 9 MPH (8 KT) (direction variable):0
Visibility: greater than 7 mile(s):0
Sky conditions: overcast
Weather: light drizzle; Cumulonimbus clouds observed
Temperature: 59 F (15 C)
Dew Point: 55 F (13 C)
Relative Humidity: 87%
Pressure (altimeter): 29.50 in. Hg (0999 hPa)
ob: EHKD 231425Z AUTO 31008KT 280V350 9999 -DZ BKN085 OVC091 15/13 Q0999 BLU TEMPO SCT080CB BKN090
cycle: 14

Station Type Date Time Source
EHKD TAF 2022/05/23 13:06 UTC NOAA

TAF TAF EHKD 231220Z 2313/2401 VRB04KT CAVOK
BECMG 2313/2315 34012KT PROB40
TEMPO 2316/2320 4500 RA -SHRA SCT060 SCT080CB
BECMG 2318/2320 27010KT BKN012 OVC018
TEMPO 2319/2401 4000 -DZRA BR SCT006 OVC012 PROB30
TEMPO 2319/2321 3000 DZRA BR SCT003 BKN005

Example: see airport list